Time;durP1;ratioP1;P1;durP2;ratioP2;P2;SDS_P1;SDS_P2;PMS_P1;PMS_P2;Temp;Humidity;BMP_temperature;BMP_pressure;BME280_temperature;BME280_humidity;BME280_pressure;Samples;Min_cycle;Max_cycle;Signal;HPM_P1;HPM_P2
2023/03/20 00:00:00;;;;;;;14.70;5.55;;;;;;;8.78;100.00;98934.75;4855524;29;20056;-87
2023/03/20 00:02:45;;;;;;;12.18;5.95;;;;;;;8.97;100.00;98935.97;4865080;29;20068;-89
2023/03/20 00:09:31;;;;;;;14.40;5.63;;;;;;;8.94;100.00;98931.06;4871892;29;20105;-91
2023/03/20 00:12:24;;;;;;;12.07;5.75;;;;;;;8.93;100.00;98921.59;4863599;29;20124;-90
2023/03/20 00:15:24;;;;;;;11.05;6.22;;;;;;;8.96;100.00;98936.97;4869467;29;20040;-89
2023/03/20 00:18:21;;;;;;;13.05;6.00;;;;;;;8.97;100.00;98942.00;4854736;29;20141;-89
2023/03/20 00:21:15;;;;;;;13.05;6.40;;;;;;;8.91;100.00;98934.88;4861179;29;20048;-88
2023/03/20 00:23:59;;;;;;;16.53;7.03;;;;;;;8.93;100.00;98934.69;4855949;29;20074;-90
2023/03/20 00:26:45;;;;;;;15.05;6.63;;;;;;;8.96;100.00;98950.84;4855659;29;20045;-88
2023/03/20 00:29:31;;;;;;;10.10;6.80;;;;;;;8.97;100.00;98936.75;4856624;29;20144;-89
2023/03/20 00:32:15;;;;;;;9.75;6.47;;;;;;;9.04;100.00;98941.22;4873609;29;20502;-89
2023/03/20 00:34:59;;;;;;;11.63;6.10;;;;;;;9.10;100.00;98922.19;4857180;29;20571;-89
2023/03/20 00:37:43;;;;;;;12.35;6.43;;;;;;;9.02;100.00;98917.03;4857193;29;20044;-88
2023/03/20 00:40:31;;;;;;;13.32;5.95;;;;;;;8.95;100.00;98920.41;4875733;29;20128;-89
2023/03/20 00:43:15;;;;;;;10.27;5.80;;;;;;;9.00;100.00;98915.44;4874304;29;20051;-90
2023/03/20 00:45:59;;;;;;;10.18;5.78;;;;;;;8.86;100.00;98918.94;4854772;29;20412;-88
2023/03/20 00:48:44;;;;;;;13.43;5.65;;;;;;;8.95;100.00;98917.00;4876504;29;20055;-90
2023/03/20 00:51:28;;;;;;;9.23;5.60;;;;;;;8.91;100.00;98910.50;4859115;29;20555;-90
2023/03/20 00:54:14;;;;;;;13.23;6.15;;;;;;;8.76;100.00;98907.94;4855712;29;20870;-91
2023/03/20 00:57:15;;;;;;;8.43;5.65;;;;;;;8.73;100.00;98892.63;4865929;29;20123;-89
2023/03/20 01:00:25;;;;;;;9.80;6.57;;;;;;;8.83;100.00;98893.94;4853427;29;20568;-88
2023/03/20 01:03:17;;;;;;;12.65;6.22;;;;;;;8.72;100.00;98886.56;4869882;29;20548;-89
2023/03/20 01:06:02;;;;;;;11.88;6.57;;;;;;;8.68;100.00;98885.31;4863402;29;20506;-88
2023/03/20 01:08:47;;;;;;;7.72;5.60;;;;;;;8.54;100.00;98879.16;4871150;29;20092;-87
2023/03/20 01:11:32;;;;;;;9.20;4.80;;;;;;;8.64;100.00;98884.06;4849707;29;20048;-84
2023/03/20 01:14:16;;;;;;;8.70;4.75;;;;;;;8.66;100.00;98888.13;4875569;29;20068;-85
2023/03/20 01:17:00;;;;;;;9.93;3.97;;;;;;;8.62;100.00;98884.25;4863433;29;20073;-87
2023/03/20 01:19:45;;;;;;;9.70;4.97;;;;;;;8.64;100.00;98882.25;4866909;29;20136;-86
2023/03/20 01:22:29;;;;;;;7.63;4.45;;;;;;;8.64;100.00;98879.63;4865675;29;20052;-88
2023/03/20 01:25:15;;;;;;;7.95;4.68;;;;;;;8.71;100.00;98880.53;4871483;29;20101;-87
2023/03/20 01:28:00;;;;;;;7.38;4.35;;;;;;;8.71;100.00;98871.84;4872953;29;20552;-88
2023/03/20 01:30:45;;;;;;;8.00;4.43;;;;;;;8.76;100.00;98863.47;4859478;29;20102;-86
2023/03/20 01:33:30;;;;;;;10.10;4.20;;;;;;;8.82;100.00;98870.56;4865966;29;20060;-88
2023/03/20 01:36:19;;;;;;;8.15;3.95;;;;;;;8.84;100.00;98874.63;4854740;29;20525;-88
2023/03/20 01:39:04;;;;;;;5.75;3.40;;;;;;;8.68;100.00;98870.44;4869787;29;20089;-88
2023/03/20 01:41:49;;;;;;;7.50;3.10;;;;;;;8.65;100.00;98852.50;4849016;29;20403;-87
2023/03/20 01:44:35;;;;;;;6.45;3.40;;;;;;;8.71;100.00;98858.78;4869472;29;20048;-86
2023/03/20 01:47:23;;;;;;;3.72;2.45;;;;;;;8.67;100.00;98858.34;4850648;29;20048;-87
2023/03/20 01:50:25;;;;;;;7.57;2.60;;;;;;;8.63;100.00;98861.53;4853588;29;20040;-86
2023/03/20 01:53:13;;;;;;;5.50;2.78;;;;;;;8.49;100.00;98850.09;4864817;29;20388;-87
2023/03/20 01:55:59;;;;;;;5.55;3.10;;;;;;;8.55;100.00;98849.38;4855222;29;20044;-86
2023/03/20 01:58:48;;;;;;;5.10;2.70;;;;;;;8.61;100.00;98853.84;4865104;29;20047;-86
2023/03/20 02:01:34;;;;;;;4.50;3.25;;;;;;;8.65;100.00;98844.66;4854235;29;20563;-89
2023/03/20 02:04:24;;;;;;;4.38;3.60;;;;;;;8.54;100.00;98847.75;4854252;29;20129;-87
2023/03/20 02:07:12;;;;;;;6.07;3.88;;;;;;;8.47;100.00;98841.63;4869271;29;20545;-90
2023/03/20 02:09:56;;;;;;;5.78;3.42;;;;;;;8.44;100.00;98840.97;4868032;29;20097;-85
2023/03/20 02:12:41;;;;;;;5.72;3.00;;;;;;;8.50;100.00;98830.81;4865435;29;20129;-89
2023/03/20 02:15:26;;;;;;;5.60;3.55;;;;;;;8.49;100.00;98835.19;4855250;29;20039;-88
2023/03/20 02:18:10;;;;;;;5.05;3.90;;;;;;;8.59;100.00;98834.13;4870415;29;20095;-84
2023/03/20 02:21:07;;;;;;;6.00;3.95;;;;;;;8.68;100.00;98833.81;4865808;29;20049;-87
2023/03/20 02:24:14;;;;;;;10.23;4.97;;;;;;;8.60;100.00;98831.31;4869441;29;20169;-88
2023/03/20 02:27:07;;;;;;;5.70;4.13;;;;;;;8.64;100.00;98829.94;4850568;29;20070;-87
2023/03/20 02:30:16;;;;;;;6.32;4.40;;;;;;;8.69;100.00;98819.72;4872868;29;20047;-86
2023/03/20 02:33:31;;;;;;;7.82;4.97;;;;;;;8.71;100.00;98825.59;4868699;29;20097;-85
2023/03/20 02:36:27;;;;;;;6.47;4.43;;;;;;;8.57;100.00;98819.41;4865201;29;20044;-85
2023/03/20 02:39:21;;;;;;;4.65;4.03;;;;;;;8.56;100.00;98820.41;4867377;29;20055;-86
2023/03/20 02:42:18;;;;;;;;;;;;;;;8.61;100.00;98811.19;4865805;29;20044;-87
2023/03/20 02:45:21;;;;;;;12.15;4.18;;;;;;;8.59;100.00;98808.75;4859895;29;19927;-86
2023/03/20 02:48:22;;;;;;;8.02;5.13;;;;;;;8.52;100.00;98798.22;4869501;29;20068;-87
2023/03/20 02:51:17;;;;;;;6.80;4.72;;;;;;;8.59;100.00;98793.06;4851436;29;20052;-87
2023/03/20 02:54:12;;;;;;;4.78;3.45;;;;;;;8.67;100.00;98800.78;4869194;29;20479;-86
2023/03/20 02:57:02;;;;;;;5.63;3.63;;;;;;;8.59;100.00;98802.72;4855424;29;20051;-88
2023/03/20 03:00:08;;;;;;;6.63;3.28;;;;;;;8.76;100.00;98808.50;4850045;29;20104;-89
2023/03/20 03:03:21;;;;;;;4.50;3.15;;;;;;;8.85;100.00;98807.38;4853707;29;20047;-87
2023/03/20 03:06:11;;;;;;;4.93;3.42;;;;;;;8.86;100.00;98801.16;4853851;29;20121;-87
2023/03/20 03:09:02;;;;;;;4.00;3.17;;;;;;;8.86;100.00;98798.53;4867739;29;20141;-86
2023/03/20 03:12:00;;;;;;;4.45;2.90;;;;;;;8.86;100.00;98788.84;4859205;29;20096;-86
2023/03/20 03:14:51;;;;;;;2.95;2.50;;;;;;;8.88;100.00;98777.38;4868278;29;20048;-85
2023/03/20 03:17:37;;;;;;;2.67;1.83;;;;;;;8.88;100.00;98785.25;4876400;29;20080;-86
2023/03/20 03:20:26;;;;;;;2.13;1.92;;;;;;;8.88;100.00;98791.31;4870941;29;20043;-86
2023/03/20 03:23:28;;;;;;;5.38;1.90;;;;;;;9.00;100.00;98779.28;4870657;29;20085;-84
2023/03/20 03:26:26;;;;;;;3.80;2.40;;;;;;;8.92;100.00;98770.78;4874550;29;20052;-85
2023/03/20 03:29:16;;;;;;;2.20;1.70;;;;;;;8.96;100.00;98777.28;4872543;29;20060;-86
2023/03/20 03:32:01;;;;;;;3.15;2.03;;;;;;;9.00;100.00;98789.75;4872379;29;20048;-85
2023/03/20 03:34:45;;;;;;;3.63;1.88;;;;;;;8.99;100.00;98775.06;4855690;29;20552;-88
2023/03/20 03:37:57;;;;;;;3.22;1.65;;;;;;;9.11;100.00;98774.53;4869404;29;20252;-85
2023/03/20 03:40:53;;;;;;;3.35;2.40;;;;;;;9.13;100.00;98769.91;4862497;29;20070;-88
2023/03/20 03:44:00;;;;;;;1.48;1.38;;;;;;;9.14;100.00;98779.38;4860532;29;20069;-89
2023/03/20 03:46:55;;;;;;;2.58;1.88;;;;;;;9.04;100.00;98768.44;4867499;29;20045;-89
2023/03/20 03:49:46;;;;;;;2.15;1.95;;;;;;;9.08;100.00;98772.31;4876417;29;20060;-86
2023/03/20 03:52:32;;;;;;;3.28;2.00;;;;;;;9.12;100.00;98773.53;4870805;29;20045;-86
2023/03/20 03:55:24;;;;;;;2.42;2.05;;;;;;;9.12;100.00;98757.84;4866030;29;20093;-88
2023/03/20 03:58:15;;;;;;;5.68;2.25;;;;;;;9.13;100.00;98756.81;4870390;29;20056;-87
2023/03/20 04:01:03;;;;;;;3.83;1.85;;;;;;;9.11;100.00;98748.34;4852979;29;20036;-87
2023/03/20 04:03:51;;;;;;;3.00;2.08;;;;;;;9.08;100.00;98738.28;4870265;29;20128;-85
2023/03/20 04:06:35;;;;;;;3.72;2.22;;;;;;;9.08;100.00;98743.50;4872385;29;20052;-86
2023/03/20 04:09:18;;;;;;;3.75;2.17;;;;;;;9.15;100.00;98744.34;4871716;29;20374;-87
2023/03/20 04:12:03;;;;;;;3.83;2.17;;;;;;;9.14;100.00;98742.72;4871503;29;20105;-86
2023/03/20 04:14:47;;;;;;;5.00;2.53;;;;;;;9.20;100.00;98735.94;4869732;29;20507;-85
2023/03/20 04:17:31;;;;;;;3.05;2.42;;;;;;;9.24;100.00;98740.59;4872214;29;20060;-87
2023/03/20 04:20:15;;;;;;;4.35;2.60;;;;;;;9.25;100.00;98739.59;4872793;29;20048;-90
2023/03/20 04:23:00;;;;;;;7.32;2.78;;;;;;;9.22;100.00;98729.47;4855294;29;20571;-87
2023/03/20 04:25:44;;;;;;;6.32;2.47;;;;;;;9.29;100.00;98738.19;4859670;29;20064;-87
2023/03/20 04:28:28;;;;;;;4.53;2.40;;;;;;;9.33;100.00;98729.94;4870022;29;20486;-87
2023/03/20 04:31:13;;;;;;;3.92;2.60;;;;;;;9.27;100.00;98727.09;4852884;29;20096;-89
2023/03/20 04:33:57;;;;;;;6.00;2.70;;;;;;;9.34;100.00;98726.31;4853833;29;20064;-88
2023/03/20 04:36:41;;;;;;;5.85;2.78;;;;;;;9.36;100.00;98740.03;4868864;29;20516;-89
2023/03/20 04:39:25;;;;;;;5.47;2.80;;;;;;;9.27;100.00;98729.72;4855092;29;20113;-89
2023/03/20 04:42:09;;;;;;;4.35;2.97;;;;;;;9.20;100.00;98736.72;4851551;29;20064;-86
2023/03/20 04:44:53;;;;;;;7.60;4.13;;;;;;;9.26;100.00;98728.09;4872306;29;20084;-88
2023/03/20 04:47:37;;;;;;;7.10;3.28;;;;;;;9.29;100.00;98738.19;4873593;29;20056;-89
2023/03/20 04:50:22;;;;;;;3.55;2.75;;;;;;;9.25;100.00;98723.06;4855596;29;20097;-87
2023/03/20 04:53:05;;;;;;;9.52;3.90;;;;;;;9.22;100.00;98726.06;4857818;29;20057;-86
2023/03/20 04:55:49;;;;;;;4.75;2.40;;;;;;;9.29;100.00;98725.09;4877128;29;21997;-88
2023/03/20 04:58:35;;;;;;;4.18;3.08;;;;;;;9.33;100.00;98729.94;4856348;29;20511;-87
2023/03/20 05:01:19;;;;;;;7.03;3.58;;;;;;;9.39;100.00;98731.78;4851498;29;20051;-90
2023/03/20 05:04:03;;;;;;;4.97;3.03;;;;;;;9.39;100.00;98739.63;4862186;29;21579;-91
2023/03/20 05:06:48;;;;;;;7.57;3.20;;;;;;;9.41;100.00;98733.22;4855298;29;20060;-88
2023/03/20 05:09:31;;;;;;;7.25;3.42;;;;;;;9.44;100.00;98724.16;4870485;29;20101;-90
2023/03/20 05:12:16;;;;;;;7.78;4.22;;;;;;;9.51;100.00;98732.84;4856616;29;20092;-89
2023/03/20 05:15:00;;;;;;;8.98;3.72;;;;;;;9.43;100.00;98719.91;4868550;29;20052;-88
2023/03/20 05:17:44;;;;;;;7.70;3.92;;;;;;;9.41;100.00;98716.66;4853621;29;20085;-87
2023/03/20 05:20:28;;;;;;;5.05;3.55;;;;;;;9.45;100.00;98717.09;4870855;29;20096;-86
2023/03/20 05:23:13;;;;;;;9.30;3.90;;;;;;;9.48;100.00;98729.81;4856297;29;20071;-85
2023/03/20 05:25:58;;;;;;;6.97;3.97;;;;;;;9.46;100.00;98734.44;4856682;29;20057;-84
2023/03/20 05:28:42;;;;;;;6.18;3.80;;;;;;;9.52;100.00;98734.47;4865749;29;21638;-85
2023/03/20 05:31:26;;;;;;;6.95;4.20;;;;;;;9.54;100.00;98727.22;4868516;29;20056;-89
2023/03/20 05:34:10;;;;;;;8.30;4.40;;;;;;;9.62;100.00;98728.03;4874572;29;20071;-89
2023/03/20 05:36:54;;;;;;;9.48;5.05;;;;;;;9.63;100.00;98724.41;4860281;29;20044;-88
2023/03/20 05:39:38;;;;;;;13.63;5.28;;;;;;;9.64;100.00;98728.69;4872681;29;20412;-87
2023/03/20 05:42:22;;;;;;;8.43;5.40;;;;;;;9.62;100.00;98728.03;4854061;29;20446;-90
2023/03/20 05:45:07;;;;;;;7.70;5.53;;;;;;;9.63;100.00;98720.00;4856510;29;20105;-89
2023/03/20 05:47:50;;;;;;;9.25;5.57;;;;;;;9.64;100.00;98715.59;4870254;29;20039;-90
2023/03/20 05:50:35;;;;;;;10.93;5.78;;;;;;;9.66;100.00;98714.34;4852637;29;20072;-89
2023/03/20 05:53:19;;;;;;;9.52;5.47;;;;;;;9.66;100.00;98724.06;4874847;29;20056;-91
2023/03/20 05:56:03;;;;;;;13.77;6.18;;;;;;;9.64;100.00;98715.59;4859919;29;20109;-91
2023/03/20 05:58:47;;;;;;;10.95;6.43;;;;;;;9.70;100.00;98722.66;4854125;29;20122;-88
2023/03/20 06:01:31;;;;;;;11.35;7.30;;;;;;;9.64;100.00;98710.34;4850425;29;20057;-85
2023/03/20 06:04:15;;;;;;;10.82;7.55;;;;;;;9.58;100.00;98712.72;4866038;29;20048;-87
2023/03/20 06:06:59;;;;;;;9.60;7.22;;;;;;;9.68;100.00;98717.59;4854952;29;20124;-87
2023/03/20 06:09:43;;;;;;;12.63;7.60;;;;;;;9.63;100.00;98732.28;4859367;29;20181;-87
2023/03/20 06:12:28;;;;;;;13.60;7.63;;;;;;;9.73;100.00;98722.25;4862331;29;20109;-87
2023/03/20 06:15:12;;;;;;;15.35;8.48;;;;;;;9.74;100.00;98723.06;4870653;29;20052;-88
2023/03/20 06:17:57;;;;;;;9.77;7.65;;;;;;;9.79;100.00;98728.53;4865142;29;20048;-89
2023/03/20 06:20:41;;;;;;;15.55;8.63;;;;;;;9.81;100.00;98724.69;4868355;29;20051;-86
2023/03/20 06:23:25;;;;;;;16.27;9.02;;;;;;;9.83;100.00;98727.13;4872002;29;20139;-86
2023/03/20 06:26:10;;;;;;;15.13;8.43;;;;;;;9.83;100.00;98725.31;4872566;29;20044;-88
2023/03/20 06:28:54;;;;;;;11.60;7.95;;;;;;;9.85;100.00;98728.56;4853654;29;20044;-86
2023/03/20 06:31:39;;;;;;;12.35;8.93;;;;;;;9.90;100.00;98725.31;4869475;29;20052;-88
2023/03/20 06:34:23;;;;;;;13.02;9.48;;;;;;;9.94;100.00;98725.72;4854924;29;20040;-85
2023/03/20 06:37:07;;;;;;;12.20;8.73;;;;;;;9.96;100.00;98723.72;4854375;29;20044;-90
2023/03/20 06:39:51;;;;;;;14.23;8.25;;;;;;;10.00;100.00;98730.19;4855996;29;20523;-86
2023/03/20 06:42:35;;;;;;;10.95;8.02;;;;;;;10.02;100.00;98736.03;4866067;29;20057;-86
2023/03/20 06:45:20;;;;;;;13.05;8.32;;;;;;;10.12;100.00;98743.50;4849609;29;20545;-87
2023/03/20 06:48:08;;;;;;;12.98;7.90;;;;;;;10.15;100.00;98746.56;4866582;29;20536;-88
2023/03/20 06:50:52;;;;;;;13.95;8.38;;;;;;;10.09;100.00;98742.13;4874117;29;20463;-86
2023/03/20 06:53:38;;;;;;;14.10;9.00;;;;;;;10.13;100.00;98739.91;4875208;29;20590;-88
2023/03/20 06:56:22;;;;;;;12.93;7.97;;;;;;;10.19;100.00;98748.78;4872217;29;20404;-83
2023/03/20 06:59:06;;;;;;;11.18;7.40;;;;;;;10.20;100.00;98750.41;4869231;29;20114;-85
2023/03/20 07:01:51;;;;;;;11.18;7.50;;;;;;;10.28;100.00;98758.88;4871848;29;20093;-85
2023/03/20 07:04:35;;;;;;;11.95;8.13;;;;;;;10.34;100.00;98757.28;4876797;29;20105;-84
2023/03/20 07:07:20;;;;;;;12.10;8.30;;;;;;;10.41;100.00;98752.06;4856497;29;20052;-83
2023/03/20 07:10:04;;;;;;;15.43;9.45;;;;;;;10.42;100.00;98756.31;4873746;29;20048;-85
2023/03/20 07:12:49;;;;;;;15.20;9.05;;;;;;;10.38;100.00;98747.22;4879053;29;20044;-85
2023/03/20 07:15:34;;;;;;;17.88;9.98;;;;;;;10.48;100.00;98767.84;4871898;29;20044;-84
2023/03/20 07:18:18;;;;;;;13.32;10.38;;;;;;;10.52;100.00;98762.00;4861008;29;20092;-85
2023/03/20 07:21:05;;;;;;;13.90;9.77;;;;;;;10.53;100.00;98760.97;4873837;29;20047;-85
2023/03/20 07:23:49;;;;;;;13.07;8.07;;;;;;;10.56;100.00;98767.63;4870794;29;20075;-85
2023/03/20 07:26:33;;;;;;;12.68;8.32;;;;;;;10.64;100.00;98774.50;4871651;29;20048;-82
2023/03/20 07:29:17;;;;;;;12.20;7.53;;;;;;;10.71;100.00;98773.50;4870167;29;20444;-80
2023/03/20 07:32:01;;;;;;;10.85;7.68;;;;;;;10.65;100.00;98778.75;4857142;29;20105;-83
2023/03/20 07:34:46;;;;;;;15.77;10.77;;;;;;;10.70;100.00;98773.69;4869937;29;20445;-82
2023/03/20 07:37:30;;;;;;;9.88;6.78;;;;;;;10.69;100.00;98774.69;4869797;29;20051;-82
2023/03/20 07:40:15;;;;;;;11.02;7.70;;;;;;;10.76;100.00;98767.66;4873602;29;20052;-81
2023/03/20 07:43:00;;;;;;;10.13;7.20;;;;;;;10.78;100.00;98763.00;4873951;29;20136;-81
2023/03/20 07:45:44;;;;;;;12.38;7.55;;;;;;;10.80;100.00;98754.91;4870997;29;20084;-87
2023/03/20 07:48:28;;;;;;;13.32;8.90;;;;;;;10.87;100.00;98750.47;4862705;29;20045;-87
2023/03/20 07:51:12;;;;;;;10.98;6.90;;;;;;;10.95;100.00;98757.34;4870194;29;20101;-88
2023/03/20 07:53:56;;;;;;;11.38;7.50;;;;;;;11.10;100.00;98765.00;4869255;29;20052;-88
2023/03/20 07:56:41;;;;;;;11.65;6.63;;;;;;;11.18;100.00;98767.38;4876141;29;20075;-89
2023/03/20 07:59:28;;;;;;;10.63;5.70;;;;;;;11.24;100.00;98761.34;4867937;29;20047;-88
2023/03/20 08:02:17;;;;;;;12.70;7.25;;;;;;;11.20;100.00;98752.25;4870516;29;20137;-87
2023/03/20 08:05:04;;;;;;;10.10;6.20;;;;;;;11.27;100.00;98755.66;4855178;29;20109;-89
2023/03/20 08:07:49;;;;;;;5.60;4.10;;;;;;;11.29;100.00;98751.00;4855556;29;20063;-88
2023/03/20 08:10:33;;;;;;;7.03;3.60;;;;;;;11.38;100.00;98743.69;4854489;29;20044;-87
2023/03/20 08:13:18;;;;;;;9.85;4.63;;;;;;;11.33;100.00;98747.97;4859378;29;20092;-87
2023/03/20 08:16:02;;;;;;;5.82;4.93;;;;;;;11.34;100.00;98752.19;4859884;29;20040;-88
2023/03/20 08:18:46;;;;;;;9.38;4.90;;;;;;;11.28;100.00;98748.56;4871487;29;20068;-88
2023/03/20 08:21:31;;;;;;;5.78;4.43;;;;;;;11.50;100.00;98750.97;4868437;29;20057;-86
2023/03/20 08:24:16;;;;;;;7.18;4.18;;;;;;;11.42;100.00;98749.38;4870952;29;20097;-88
2023/03/20 08:27:00;;;;;;;6.97;4.70;;;;;;;11.42;100.00;98747.53;4866528;29;20052;-87
2023/03/20 08:29:45;;;;;;;5.97;4.50;;;;;;;11.46;100.00;98755.81;4866385;29;20101;-88
2023/03/20 08:32:29;;;;;;;5.45;4.03;;;;;;;11.50;100.00;98764.88;4854998;29;20060;-87
2023/03/20 08:35:13;;;;;;;5.05;4.00;;;;;;;11.52;100.00;98752.34;4870146;29;20042;-87
2023/03/20 08:37:58;;;;;;;5.00;3.75;;;;;;;11.61;100.00;98752.13;4872142;29;20043;-91
2023/03/20 08:40:42;;;;;;;5.10;4.00;;;;;;;11.73;100.00;98753.06;4868258;29;21025;-91
2023/03/20 08:43:26;;;;;;;5.82;4.13;;;;;;;11.84;100.00;98759.50;4873356;29;20540;-87
2023/03/20 08:46:10;;;;;;;7.28;4.30;;;;;;;11.99;100.00;98756.63;4868518;29;20568;-88
2023/03/20 08:48:54;;;;;;;4.30;3.88;;;;;;;12.02;100.00;98760.66;4859614;29;20059;-87
2023/03/20 08:51:39;;;;;;;5.25;3.78;;;;;;;12.18;100.00;98761.97;4874729;29;20047;-90
2023/03/20 08:54:23;;;;;;;4.18;3.63;;;;;;;12.24;100.00;98759.31;4861708;29;20051;-89
2023/03/20 08:57:07;;;;;;;3.38;3.05;;;;;;;12.39;100.00;98766.94;4883307;29;20105;-87
2023/03/20 08:59:51;;;;;;;5.60;3.83;;;;;;;12.42;100.00;98769.13;4872028;29;20400;-89
2023/03/20 09:02:35;;;;;;;6.70;4.30;;;;;;;12.50;100.00;98767.25;4873310;29;20060;-90
2023/03/20 09:05:19;;;;;;;5.93;4.38;;;;;;;12.68;100.00;98772.56;4877591;29;20181;-91
2023/03/20 09:08:06;;;;;;;5.25;4.75;;;;;;;12.80;100.00;98767.41;4870310;29;20048;-89
2023/03/20 09:10:51;;;;;;;8.65;4.63;;;;;;;12.89;100.00;98770.59;4869156;29;20052;-88
2023/03/20 09:13:35;;;;;;;9.57;5.40;;;;;;;12.97;100.00;98766.88;4869070;29;20057;-86
2023/03/20 09:16:19;;;;;;;6.68;5.10;;;;;;;12.83;100.00;98771.44;4856196;29;20469;-90
2023/03/20 09:19:04;;;;;;;7.15;5.45;;;;;;;12.91;100.00;98773.81;4870984;29;20064;-90
2023/03/20 09:21:48;;;;;;;6.00;4.90;;;;;;;13.19;100.00;98769.09;4868238;29;20189;-89
2023/03/20 09:24:32;;;;;;;7.40;4.60;;;;;;;13.25;100.00;98784.03;4870830;29;20078;-89
2023/03/20 09:27:17;;;;;;;4.72;4.22;;;;;;;13.48;100.00;98782.63;4871338;29;20049;-87
2023/03/20 09:30:02;;;;;;;4.97;4.30;;;;;;;13.64;100.00;98775.94;4853904;29;20048;-87
2023/03/20 09:32:49;;;;;;;7.28;5.70;;;;;;;13.76;100.00;98784.75;4851460;29;20048;-87
2023/03/20 09:35:34;;;;;;;4.47;4.05;;;;;;;13.53;100.00;98780.91;4870504;29;20075;-86
2023/03/20 09:38:17;;;;;;;4.05;3.20;;;;;;;13.62;100.00;98775.38;4869423;29;20173;-86
2023/03/20 09:41:03;;;;;;;3.00;2.70;;;;;;;13.73;100.00;98784.38;4875274;29;20521;-88
2023/03/20 09:44:25;;;;;;;4.00;2.97;;;;;;;13.73;100.00;98774.59;4865591;29;20048;-87
2023/03/20 09:47:43;;;;;;;3.30;3.00;;;;;;;13.71;100.00;98776.66;4876299;29;20052;-89
2023/03/20 09:50:36;;;;;;;4.55;3.03;;;;;;;13.99;100.00;98791.94;4874655;29;20572;-87
2023/03/20 09:53:23;;;;;;;2.88;2.65;;;;;;;14.11;100.00;98792.00;4871349;29;20553;-89
2023/03/20 09:56:15;;;;;;;3.40;2.30;;;;;;;14.19;100.00;98782.16;4868209;29;20136;-91
2023/03/20 10:03:42;;;;;;;3.28;2.30;;;;;;;14.68;100.00;98796.06;4875224;29;20056;-91
2023/03/20 10:06:37;;;;;;;2.85;2.50;;;;;;;15.01;100.00;98804.50;4840494;29;20132;-90
2023/03/20 10:13:54;;;;;;;;;;;;;;;15.51;100.00;98797.91;4870398;29;20047;-90
2023/03/20 10:16:47;;;;;;;3.05;2.40;;;;;;;15.42;100.00;98789.53;4877142;29;19922;-89
2023/03/20 10:32:03;;;;;;;3.58;3.05;;;;;;;14.95;100.00;98806.25;4852250;29;20093;-90
2023/03/20 10:35:26;;;;;;;2.80;2.60;;;;;;;14.94;100.00;98825.78;4854189;29;20079;-91
2023/03/20 10:38:26;;;;;;;2.35;2.15;;;;;;;14.69;100.00;98821.44;4867247;29;20037;-90
2023/03/20 10:41:16;;;;;;;2.67;2.17;;;;;;;14.75;100.00;98825.03;4859572;29;20625;-90
2023/03/20 10:44:02;;;;;;;2.42;1.90;;;;;;;14.68;100.00;98826.97;4863994;29;20053;-90
2023/03/20 11:01:44;;;;;;;1.30;1.20;;;;;;;15.98;100.00;98804.16;4886532;29;20052;-89
2023/03/20 11:04:32;;;;;;;1.98;1.88;;;;;;;16.11;100.00;98788.00;4867881;29;20420;-90
2023/03/20 11:07:27;;;;;;;2.95;2.15;;;;;;;16.23;100.00;98800.38;4868071;29;20044;-89
2023/03/20 11:10:15;;;;;;;3.00;2.50;;;;;;;16.34;100.00;98788.13;4864050;29;20060;-90
2023/03/20 11:13:45;;;;;;;2.45;2.25;;;;;;;16.23;100.00;98782.66;4892869;29;20074;-88
2023/03/20 11:16:35;;;;;;;3.30;3.00;;;;;;;16.06;100.00;98793.19;4872905;29;20084;-89
2023/03/20 11:19:25;;;;;;;3.13;2.83;;;;;;;15.88;100.00;98786.22;4870310;29;20048;-88
2023/03/20 11:26:16;;;;;;;3.55;3.25;;;;;;;15.95;100.00;98765.72;4867035;29;20435;-90
2023/03/20 11:32:54;;;;;;;3.25;2.80;;;;;;;16.04;100.00;98774.09;4875869;29;20139;-88
2023/03/20 11:35:45;;;;;;;3.05;2.78;;;;;;;15.98;100.00;98759.16;4855422;29;20127;-87
2023/03/20 11:38:30;;;;;;;3.67;2.90;;;;;;;15.78;100.00;98765.66;4872764;29;20124;-91
2023/03/20 11:45:17;;;;;;;3.85;2.88;;;;;;;15.91;100.00;98777.00;4871132;29;20048;-90
2023/03/20 11:48:03;;;;;;;3.42;3.13;;;;;;;15.96;100.00;98775.28;4868279;29;21874;-89
2023/03/20 11:51:00;;;;;;;5.88;3.35;;;;;;;16.17;100.00;98783.59;4872048;29;20068;-89
2023/03/20 11:53:47;;;;;;;3.35;3.05;;;;;;;16.03;100.00;98777.78;4871056;29;20044;-87
2023/03/20 11:56:32;;;;;;;2.78;2.55;;;;;;;16.18;100.00;98779.09;4865888;29;20060;-87
2023/03/20 11:59:18;;;;;;;3.00;2.80;;;;;;;16.42;100.00;98774.50;4871162;29;20048;-90
2023/03/20 12:02:15;;;;;;;4.50;2.80;;;;;;;16.15;100.00;98782.22;4872975;29;20385;-89
2023/03/20 12:05:02;;;;;;;3.10;2.80;;;;;;;16.42;100.00;98764.69;4875428;29;20070;-88
2023/03/20 12:07:50;;;;;;;2.80;2.60;;;;;;;16.35;100.00;98768.53;4873425;29;20137;-89
2023/03/20 12:10:40;;;;;;;2.80;2.50;;;;;;;16.02;100.00;98773.53;4872133;29;20518;-88
2023/03/20 12:13:39;;;;;;;3.78;2.50;;;;;;;16.07;100.00;98773.63;4869306;29;20052;-85
2023/03/20 12:16:27;;;;;;;3.42;2.30;;;;;;;16.19;100.00;98778.06;4873274;29;20052;-88
2023/03/20 12:19:17;;;;;;;2.53;2.33;;;;;;;16.03;100.00;98761.91;4880990;29;20081;-88
2023/03/20 12:22:16;;;;;;;2.97;2.60;;;;;;;15.85;100.00;98745.13;4871710;29;20100;-88
2023/03/20 12:28:57;;;;;;;3.10;2.80;;;;;;;16.25;100.00;98761.22;4869342;29;20097;-85
2023/03/20 12:32:12;;;;;;;3.38;3.05;;;;;;;16.26;100.00;98761.00;4868144;29;20052;-85
2023/03/20 12:35:09;;;;;;;3.88;2.75;;;;;;;16.09;100.00;98755.66;4868441;29;20468;-86
2023/03/20 12:37:53;;;;;;;3.35;2.95;;;;;;;16.70;100.00;98763.03;4869929;29;20089;-90
2023/03/20 12:40:42;;;;;;;6.20;4.38;;;;;;;17.05;100.00;98770.94;4870768;29;20105;-91
2023/03/20 12:43:37;;;;;;;15.88;9.00;;;;;;;17.48;100.00;98771.25;4872780;29;20138;-89
2023/03/20 12:46:42;;;;;;;5.20;3.75;;;;;;;17.40;100.00;98773.31;4868833;29;20060;-87
2023/03/20 12:49:52;;;;;;;4.85;2.60;;;;;;;17.34;100.00;98770.81;4873362;29;20079;-88
2023/03/20 12:53:00;;;;;;;4.35;2.40;;;;;;;17.04;100.00;98772.00;4874007;29;20507;-88
2023/03/20 12:55:50;;;;;;;2.63;2.13;;;;;;;16.45;100.00;98765.25;4868404;29;20533;-89
2023/03/20 12:58:37;;;;;;;3.20;2.90;;;;;;;16.47;100.00;98756.03;4872894;29;20052;-89
2023/03/20 13:01:27;;;;;;;2.78;2.17;;;;;;;16.43;100.00;98752.25;4862482;29;20070;-90
2023/03/20 13:04:42;;;;;;;2.03;1.90;;;;;;;16.14;100.00;98752.28;4855845;29;20112;-90
2023/03/20 13:07:57;;;;;;;1.88;1.70;;;;;;;16.44;100.00;98753.06;4857486;29;20514;-88
2023/03/20 13:10:48;;;;;;;2.33;1.63;;;;;;;16.46;100.00;98754.44;4853576;29;20094;-88
2023/03/20 13:13:54;;;;;;;1.77;1.50;;;;;;;16.46;100.00;98758.91;4859316;29;20217;-87
2023/03/20 13:17:00;;;;;;;1.63;1.20;;;;;;;16.12;100.00;98760.50;4876208;29;20056;-86
2023/03/20 13:20:15;;;;;;;0.90;0.90;;;;;;;16.48;100.00;98751.53;4874441;29;20052;-87
2023/03/20 13:23:02;;;;;;;2.08;1.20;;;;;;;17.07;100.00;98761.72;4861764;29;20071;-87
2023/03/20 13:25:55;;;;;;;1.00;0.98;;;;;;;17.12;100.00;98758.34;4859846;29;20529;-86
2023/03/20 13:28:43;;;;;;;1.20;1.10;;;;;;;17.22;100.00;98760.34;4854733;29;20076;-86
2023/03/20 13:31:36;;;;;;;2.05;1.30;;;;;;;17.09;100.00;98751.66;4863424;29;20041;-86
2023/03/20 13:34:38;;;;;;;1.90;1.75;;;;;;;16.93;100.00;98747.97;4868067;29;20568;-89
2023/03/20 13:37:32;;;;;;;2.15;1.63;;;;;;;17.25;100.00;98744.72;4864075;29;20044;-89
2023/03/20 13:40:22;;;;;;;1.83;1.60;;;;;;;17.45;100.00;98738.06;4857771;29;20052;-87
2023/03/20 13:43:21;;;;;;;2.15;1.95;;;;;;;17.84;100.00;98726.56;4873266;29;20060;-87
2023/03/20 13:46:11;;;;;;;2.50;1.73;;;;;;;17.77;100.00;98744.50;4861415;29;20048;-88
2023/03/20 13:49:01;;;;;;;3.38;2.50;;;;;;;17.77;100.00;98737.34;4871450;29;20408;-87
2023/03/20 13:52:05;;;;;;;3.17;2.75;;;;;;;18.06;100.00;98741.66;4862523;29;20576;-86
2023/03/20 13:55:10;;;;;;;9.57;5.13;;;;;;;18.04;100.00;98739.25;4876624;29;20048;-86
2023/03/20 13:58:09;;;;;;;;;;;;;;;17.81;100.00;98737.66;4868539;29;20131;-86
2023/03/20 14:01:21;;;;;;;2.97;2.40;;;;;;;17.67;100.00;98734.59;4889604;29;19923;-89
2023/03/20 14:04:13;;;;;;;31.40;17.02;;;;;;;17.73;100.00;98730.94;4868524;29;20110;-88